sensor_id;sensor_type;location;lat;lon;timestamp;pressure;altitude;pressure_sealevel;temperature;humidity
70304;BME280;57712;48.752;11.348;2023-04-08T00:00:55;97602.63;;;2.46;100.00
70304;BME280;57712;48.752;11.348;2023-04-08T00:03:22;97610.97;;;2.37;100.00
70304;BME280;57712;48.752;11.348;2023-04-08T00:05:49;97608.22;;;2.34;100.00
70304;BME280;57712;48.752;11.348;2023-04-08T00:08:15;97611.66;;;2.30;100.00
70304;BME280;57712;48.752;11.348;2023-04-08T00:10:42;97609.03;;;2.38;100.00
70304;BME280;57712;48.752;11.348;2023-04-08T00:13:08;97615.19;;;2.35;100.00
70304;BME280;57712;48.752;11.348;2023-04-08T00:15:35;97615.91;;;2.31;100.00
70304;BME280;57712;48.752;11.348;2023-04-08T00:18:02;97606.28;;;2.34;100.00
70304;BME280;57712;48.752;11.348;2023-04-08T00:20:29;97605.53;;;2.34;100.00
70304;BME280;57712;48.752;11.348;2023-04-08T00:22:55;97616.00;;;2.39;100.00
70304;BME280;57712;48.752;11.348;2023-04-08T00:25:22;97621.31;;;2.31;100.00
70304;BME280;57712;48.752;11.348;2023-04-08T00:27:51;97611.66;;;2.30;100.00
70304;BME280;57712;48.752;11.348;2023-04-08T00:30:17;97612.91;;;2.37;100.00
70304;BME280;57712;48.752;11.348;2023-04-08T00:32:44;97605.94;;;2.36;100.00
70304;BME280;57712;48.752;11.348;2023-04-08T00:35:11;97615.19;;;2.35;100.00
70304;BME280;57712;48.752;11.348;2023-04-08T00:37:38;97609.91;;;2.42;100.00
70304;BME280;57712;48.752;11.348;2023-04-08T00:40:05;97614.44;;;2.38;100.00
70304;BME280;57712;48.752;11.348;2023-04-08T00:42:31;97615.31;;;2.42;100.00
70304;BME280;57712;48.752;11.348;2023-04-08T00:44:58;97621.53;;;2.46;100.00
70304;BME280;57712;48.752;11.348;2023-04-08T00:47:24;97623.94;;;2.51;100.00
70304;BME280;57712;48.752;11.348;2023-04-08T00:49:51;97616.19;;;2.49;100.00
70304;BME280;57712;48.752;11.348;2023-04-08T00:52:18;97618.28;;;2.59;100.00
70304;BME280;57712;48.752;11.348;2023-04-08T00:54:44;97621.75;;;2.60;100.00
70304;BME280;57712;48.752;11.348;2023-04-08T00:57:11;97621.88;;;2.67;100.00
70304;BME280;57712;48.752;11.348;2023-04-08T00:59:38;97622.41;;;2.76;100.00
70304;BME280;57712;48.752;11.348;2023-04-08T01:02:13;97622.03;;;2.78;100.00
70304;BME280;57712;48.752;11.348;2023-04-08T01:05:04;97618.31;;;2.89;100.00
70304;BME280;57712;48.752;11.348;2023-04-08T01:07:37;97624.97;;;2.92;100.00
70304;BME280;57712;48.752;11.348;2023-04-08T01:10:12;97626.16;;;2.95;100.00
70304;BME280;57712;48.752;11.348;2023-04-08T01:12:45;97620.09;;;3.05;100.00
70304;BME280;57712;48.752;11.348;2023-04-08T01:15:13;97620.19;;;3.12;100.00
70304;BME280;57712;48.752;11.348;2023-04-08T01:17:42;97625.50;;;3.05;100.00
70304;BME280;57712;48.752;11.348;2023-04-08T01:20:10;97624.72;;;3.04;100.00
70304;BME280;57712;48.752;11.348;2023-04-08T01:25:23;97631.00;;;3.12;100.00
70304;BME280;57712;48.752;11.348;2023-04-08T01:27:51;97624.81;;;3.11;100.00
70304;BME280;57712;48.752;11.348;2023-04-08T01:30:19;97619.13;;;3.20;100.00
70304;BME280;57712;48.752;11.348;2023-04-08T01:32:46;97624.94;;;3.22;100.00
70304;BME280;57712;48.752;11.348;2023-04-08T01:35:14;97620.75;;;3.25;100.00
70304;BME280;57712;48.752;11.348;2023-04-08T01:37:42;97617.97;;;3.21;100.00
70304;BME280;57712;48.752;11.348;2023-04-08T01:40:10;97618.41;;;3.23;100.00
70304;BME280;57712;48.752;11.348;2023-04-08T01:42:38;97626.59;;;3.30;100.00
70304;BME280;57712;48.752;11.348;2023-04-08T01:45:05;97626.31;;;3.35;100.00
70304;BME280;57712;48.752;11.348;2023-04-08T01:47:33;97629.84;;;3.43;100.00
70304;BME280;57712;48.752;11.348;2023-04-08T01:50:01;97625.88;;;3.33;100.00
70304;BME280;57712;48.752;11.348;2023-04-08T01:52:29;97623.66;;;3.42;100.00
70304;BME280;57712;48.752;11.348;2023-04-08T01:54:56;97628.41;;;3.49;100.00
70304;BME280;57712;48.752;11.348;2023-04-08T01:57:23;97630.72;;;3.51;100.00
70304;BME280;57712;48.752;11.348;2023-04-08T01:59:55;97632.28;;;3.52;100.00
70304;BME280;57712;48.752;11.348;2023-04-08T02:02:26;97625.97;;;3.40;100.00
70304;BME280;57712;48.752;11.348;2023-04-08T02:04:54;97630.69;;;3.47;100.00
70304;BME280;57712;48.752;11.348;2023-04-08T02:07:21;97628.91;;;3.28;100.00
70304;BME280;57712;48.752;11.348;2023-04-08T02:09:47;97630.84;;;3.28;100.00
70304;BME280;57712;48.752;11.348;2023-04-08T02:12:14;97635.84;;;3.26;100.00
70304;BME280;57712;48.752;11.348;2023-04-08T02:14:41;97631.72;;;3.35;100.00
70304;BME280;57712;48.752;11.348;2023-04-08T02:17:10;97631.72;;;3.35;100.00
70304;BME280;57712;48.752;11.348;2023-04-08T02:20:06;97630.63;;;3.43;100.00
70304;BME280;57712;48.752;11.348;2023-04-08T02:22:38;97634.28;;;3.55;100.00
70304;BME280;57712;48.752;11.348;2023-04-08T02:25:08;97630.06;;;3.61;100.00
70304;BME280;57712;48.752;11.348;2023-04-08T02:27:38;97627.72;;;3.56;100.00
70304;BME280;57712;48.752;11.348;2023-04-08T02:30:07;97634.28;;;3.55;100.00
70304;BME280;57712;48.752;11.348;2023-04-08T02:32:36;97631.56;;;3.55;100.00
70304;BME280;57712;48.752;11.348;2023-04-08T02:35:04;97631.59;;;3.58;100.00
70304;BME280;57712;48.752;11.348;2023-04-08T02:37:31;97636.28;;;3.61;100.00
70304;BME280;57712;48.752;11.348;2023-04-08T02:39:58;97631.13;;;3.53;100.00
70304;BME280;57712;48.752;11.348;2023-04-08T02:42:25;97638.53;;;3.56;100.00
70304;BME280;57712;48.752;11.348;2023-04-08T02:44:51;97637.78;;;3.59;100.00
70304;BME280;57712;48.752;11.348;2023-04-08T02:47:18;97641.75;;;3.65;100.00
70304;BME280;57712;48.752;11.348;2023-04-08T02:49:44;97638.97;;;3.61;100.00
70304;BME280;57712;48.752;11.348;2023-04-08T02:52:11;97640.91;;;3.61;100.00
70304;BME280;57712;48.752;11.348;2023-04-08T02:54:38;97639.44;;;3.67;100.00
70304;BME280;57712;48.752;11.348;2023-04-08T02:57:04;97644.09;;;3.66;100.00
70304;BME280;57712;48.752;11.348;2023-04-08T02:59:31;97643.31;;;3.66;100.00
70304;BME280;57712;48.752;11.348;2023-04-08T03:01:57;97645.59;;;3.64;100.00
70304;BME280;57712;48.752;11.348;2023-04-08T03:04:24;97644.03;;;3.63;100.00
70304;BME280;57712;48.752;11.348;2023-04-08T03:06:51;97658.66;;;3.55;100.00
70304;BME280;57712;48.752;11.348;2023-04-08T03:09:17;97655.22;;;3.61;100.00
70304;BME280;57712;48.752;11.348;2023-04-08T03:11:44;97654.34;;;3.54;100.00
70304;BME280;57712;48.752;11.348;2023-04-08T03:14:10;97651.34;;;3.59;100.00
70304;BME280;57712;48.752;11.348;2023-04-08T03:16:37;97649.78;;;3.58;100.00
70304;BME280;57712;48.752;11.348;2023-04-08T03:19:03;97653.25;;;3.55;100.00
70304;BME280;57712;48.752;11.348;2023-04-08T03:21:30;97653.94;;;3.52;100.00
70304;BME280;57712;48.752;11.348;2023-04-08T03:23:57;97658.47;;;3.40;100.00
70304;BME280;57712;48.752;11.348;2023-04-08T03:26:24;97657.56;;;3.33;100.00
70304;BME280;57712;48.752;11.348;2023-04-08T03:28:52;97655.97;;;3.28;100.00
70304;BME280;57712;48.752;11.348;2023-04-08T03:31:19;97653.38;;;3.35;100.00
70304;BME280;57712;48.752;11.348;2023-04-08T03:33:46;97650.66;;;3.35;100.00
70304;BME280;57712;48.752;11.348;2023-04-08T03:36:13;97659.03;;;3.23;100.00
70304;BME280;57712;48.752;11.348;2023-04-08T03:38:39;97655.94;;;3.25;100.00
70304;BME280;57712;48.752;11.348;2023-04-08T03:41:06;97660.47;;;3.17;100.00
70304;BME280;57712;48.752;11.348;2023-04-08T03:43:32;97662.34;;;3.13;100.00
70304;BME280;57712;48.752;11.348;2023-04-08T03:46:02;97665.00;;;3.09;100.00
70304;BME280;57712;48.752;11.348;2023-04-08T03:48:29;97671.94;;;3.07;100.00
70304;BME280;57712;48.752;11.348;2023-04-08T03:50:55;97665.47;;;3.15;100.00
70304;BME280;57712;48.752;11.348;2023-04-08T03:53:22;97677.00;;;3.12;100.00
70304;BME280;57712;48.752;11.348;2023-04-08T03:55:49;97678.13;;;3.07;100.00
70304;BME280;57712;48.752;11.348;2023-04-08T03:58:18;97672.84;;;3.18;100.00
70304;BME280;57712;48.752;11.348;2023-04-08T04:00:45;97672.84;;;3.18;100.00
70304;BME280;57712;48.752;11.348;2023-04-08T04:03:11;97673.63;;;3.18;100.00
70304;BME280;57712;48.752;11.348;2023-04-08T04:05:39;97680.22;;;3.21;100.00
70304;BME280;57712;48.752;11.348;2023-04-08T04:08:05;97675.94;;;3.16;100.00
70304;BME280;57712;48.752;11.348;2023-04-08T04:10:32;97674.41;;;3.19;100.00
70304;BME280;57712;48.752;11.348;2023-04-08T04:12:59;97668.97;;;3.15;100.00
70304;BME280;57712;48.752;11.348;2023-04-08T04:15:25;97675.25;;;3.23;100.00
70304;BME280;57712;48.752;11.348;2023-04-08T04:17:52;97677.50;;;3.17;100.00
70304;BME280;57712;48.752;11.348;2023-04-08T04:20:19;97681.38;;;3.20;100.00
70304;BME280;57712;48.752;11.348;2023-04-08T04:22:47;97684.09;;;3.20;100.00
70304;BME280;57712;48.752;11.348;2023-04-08T04:25:13;97686.53;;;3.29;100.00
70304;BME280;57712;48.752;11.348;2023-04-08T04:27:40;97674.59;;;3.33;100.00
70304;BME280;57712;48.752;11.348;2023-04-08T04:30:07;97687.84;;;3.38;100.00
70304;BME280;57712;48.752;11.348;2023-04-08T04:32:34;97683.97;;;3.39;100.00
70304;BME280;57712;48.752;11.348;2023-04-08T04:35:01;97696.25;;;3.33;100.00
70304;BME280;57712;48.752;11.348;2023-04-08T04:37:28;97688.56;;;3.35;100.00
70304;BME280;57712;48.752;11.348;2023-04-08T04:39:54;97692.50;;;3.41;100.00
70304;BME280;57712;48.752;11.348;2023-04-08T04:42:21;97700.22;;;3.39;100.00
70304;BME280;57712;48.752;11.348;2023-04-08T04:44:47;97696.44;;;3.44;100.00
70304;BME280;57712;48.752;11.348;2023-04-08T04:47:14;97693.78;;;3.51;100.00
70304;BME280;57712;48.752;11.348;2023-04-08T04:49:41;97689.13;;;3.48;100.00
70304;BME280;57712;48.752;11.348;2023-04-08T04:52:08;97693.78;;;3.51;100.00
70304;BME280;57712;48.752;11.348;2023-04-08T04:54:35;97702.03;;;3.58;100.00
70304;BME280;57712;48.752;11.348;2023-04-08T04:57:01;97699.69;;;3.57;100.00
70304;BME280;57712;48.752;11.348;2023-04-08T04:59:28;97698.13;;;3.56;100.00
70304;BME280;57712;48.752;11.348;2023-04-08T05:01:54;97710.91;;;3.59;100.00
70304;BME280;57712;48.752;11.348;2023-04-08T05:04:23;97700.50;;;3.61;100.00
70304;BME280;57712;48.752;11.348;2023-04-08T05:06:50;97711.34;;;3.61;100.00
70304;BME280;57712;48.752;11.348;2023-04-08T05:09:17;97712.88;;;3.62;100.00
70304;BME280;57712;48.752;11.348;2023-04-08T05:11:43;97717.91;;;3.60;100.00
70304;BME280;57712;48.752;11.348;2023-04-08T05:14:10;97720.59;;;3.60;100.00
70304;BME280;57712;48.752;11.348;2023-04-08T05:16:36;97720.50;;;3.53;100.00
70304;BME280;57712;48.752;11.348;2023-04-08T05:19:04;97719.56;;;3.68;100.00
70304;BME280;57712;48.752;11.348;2023-04-08T05:21:30;97726.63;;;3.76;100.00
70304;BME280;57712;48.752;11.348;2023-04-08T05:23:58;97725.88;;;3.79;100.00
70304;BME280;57712;48.752;11.348;2023-04-08T05:26:24;97723.31;;;3.90;100.00
70304;BME280;57712;48.752;11.348;2023-04-08T05:28:51;97726.53;;;3.99;100.00
70304;BME280;57712;48.752;11.348;2023-04-08T05:31:18;97727.59;;;3.94;100.00
70304;BME280;57712;48.752;11.348;2023-04-08T05:33:46;97737.41;;;4.06;100.00
70304;BME280;57712;48.752;11.348;2023-04-08T05:36:12;97729.66;;;4.04;100.00
70304;BME280;57712;48.752;11.348;2023-04-08T05:38:39;97734.44;;;4.15;100.00
70304;BME280;57712;48.752;11.348;2023-04-08T05:41:07;97734.91;;;4.24;100.00
70304;BME280;57712;48.752;11.348;2023-04-08T05:43:34;97736.16;;;4.30;100.00
70304;BME280;57712;48.752;11.348;2023-04-08T05:46:06;97740.84;;;4.37;100.00
70304;BME280;57712;48.752;11.348;2023-04-08T05:48:33;97736.16;;;4.30;100.00
70304;BME280;57712;48.752;11.348;2023-04-08T05:51:00;97737.94;;;4.52;100.00
70304;BME280;57712;48.752;11.348;2023-04-08T05:53:26;97732.22;;;4.61;100.00
70304;BME280;57712;48.752;11.348;2023-04-08T05:55:53;97740.28;;;4.54;100.00
70304;BME280;57712;48.752;11.348;2023-04-08T05:58:19;97737.22;;;4.59;100.00
70304;BME280;57712;48.752;11.348;2023-04-08T06:00:46;97739.19;;;4.62;100.00
70304;BME280;57712;48.752;11.348;2023-04-08T06:03:13;97741.16;;;4.69;100.00
70304;BME280;57712;48.752;11.348;2023-04-08T06:05:41;97740.44;;;4.72;100.00
70304;BME280;57712;48.752;11.348;2023-04-08T06:08:07;97740.50;;;4.79;100.00
70304;BME280;57712;48.752;11.348;2023-04-08T06:10:34;97745.13;;;4.78;100.00
70304;BME280;57712;48.752;11.348;2023-04-08T06:13:00;97740.22;;;4.91;100.00
70304;BME280;57712;48.752;11.348;2023-04-08T06:15:27;97743.44;;;5.07;100.00
70304;BME280;57712;48.752;11.348;2023-04-08T06:17:53;97735.47;;;5.29;100.00
70304;BME280;57712;48.752;11.348;2023-04-08T06:20:20;97740.44;;;5.19;100.00
70304;BME280;57712;48.752;11.348;2023-04-08T06:22:47;97742.41;;;5.22;100.00
70304;BME280;57712;48.752;11.348;2023-04-08T06:25:13;97747.22;;;5.50;100.00
70304;BME280;57712;48.752;11.348;2023-04-08T06:27:40;97744.13;;;5.45;100.00
70304;BME280;57712;48.752;11.348;2023-04-08T06:30:07;97748.13;;;5.72;100.00
70304;BME280;57712;48.752;11.348;2023-04-08T06:32:34;97741.97;;;5.75;100.00
70304;BME280;57712;48.752;11.348;2023-04-08T06:35:00;97748.13;;;5.72;100.00
70304;BME280;57712;48.752;11.348;2023-04-08T06:37:27;97743.50;;;5.76;100.00
70304;BME280;57712;48.752;11.348;2023-04-08T06:39:54;97752.09;;;5.86;100.00
70304;BME280;57712;48.752;11.348;2023-04-08T06:42:20;97752.06;;;5.78;100.00
70304;BME280;57712;48.752;11.348;2023-04-08T06:44:48;97759.13;;;5.94;100.00
70304;BME280;57712;48.752;11.348;2023-04-08T06:47:14;97756.03;;;5.92;100.00
70304;BME280;57712;48.752;11.348;2023-04-08T06:49:42;97759.19;;;6.01;100.00
70304;BME280;57712;48.752;11.348;2023-04-08T06:52:09;97757.72;;;6.21;100.00
70304;BME280;57712;48.752;11.348;2023-04-08T06:54:37;97763.97;;;6.32;100.00
70304;BME280;57712;48.752;11.348;2023-04-08T06:57:03;97762.06;;;6.36;100.00
70304;BME280;57712;48.752;11.348;2023-04-08T06:59:30;97771.78;;;6.41;100.00
70304;BME280;57712;48.752;11.348;2023-04-08T07:01:57;97767.09;;;6.42;100.00
70304;BME280;57712;48.752;11.348;2023-04-08T07:04:23;97774.88;;;6.43;100.00
70304;BME280;57712;48.752;11.348;2023-04-08T07:06:50;97771.78;;;6.45;100.00
70304;BME280;57712;48.752;11.348;2023-04-08T07:09:17;97775.69;;;6.51;100.00
70304;BME280;57712;48.752;11.348;2023-04-08T07:11:44;97781.13;;;6.51;100.00
70304;BME280;57712;48.752;11.348;2023-04-08T07:14:11;97786.22;;;6.63;100.00
70304;BME280;57712;48.752;11.348;2023-04-08T07:16:37;97785.44;;;6.59;100.00
70304;BME280;57712;48.752;11.348;2023-04-08T07:19:04;97790.50;;;6.64;100.00
70304;BME280;57712;48.752;11.348;2023-04-08T07:21:30;97792.41;;;6.56;100.00
70304;BME280;57712;48.752;11.348;2023-04-08T07:23:57;97797.47;;;6.51;100.00
70304;BME280;57712;48.752;11.348;2023-04-08T07:26:24;97798.97;;;6.41;100.00
70304;BME280;57712;48.752;11.348;2023-04-08T07:28:50;97812.19;;;6.43;100.00
70304;BME280;57712;48.752;11.348;2023-04-08T07:31:17;97807.53;;;6.40;100.00
70304;BME280;57712;48.752;11.348;2023-04-08T07:33:44;97812.88;;;6.18;100.00
70304;BME280;57712;48.752;11.348;2023-04-08T07:36:12;97824.09;;;6.06;100.00
70304;BME280;57712;48.752;11.348;2023-04-08T07:38:39;97823.66;;;5.97;100.00
70304;BME280;57712;48.752;11.348;2023-04-08T07:41:06;97824.28;;;5.79;100.00
70304;BME280;57712;48.752;11.348;2023-04-08T07:43:32;97823.44;;;5.65;100.00
70304;BME280;57712;48.752;11.348;2023-04-08T07:46:05;97827.31;;;5.67;100.00
70304;BME280;57712;48.752;11.348;2023-04-08T07:48:33;97843.22;;;5.65;100.00
70304;BME280;57712;48.752;11.348;2023-04-08T07:51:07;97833.47;;;5.61;100.00
70304;BME280;57712;48.752;11.348;2023-04-08T07:53:37;97840.06;;;5.56;100.00
70304;BME280;57712;48.752;11.348;2023-04-08T07:56:10;97846.59;;;5.51;100.00
70304;BME280;57712;48.752;11.348;2023-04-08T07:58:38;97851.94;;;5.41;100.00
70304;BME280;57712;48.752;11.348;2023-04-08T08:01:20;97856.59;;;5.40;100.00
70304;BME280;57712;48.752;11.348;2023-04-08T08:03:48;97854.97;;;5.29;100.00
70304;BME280;57712;48.752;11.348;2023-04-08T08:06:15;97852.53;;;5.20;100.00
70304;BME280;57712;48.752;11.348;2023-04-08T08:08:42;97860.59;;;5.09;100.00
70304;BME280;57712;48.752;11.348;2023-04-08T08:11:09;97860.28;;;5.14;100.00
70304;BME280;57712;48.752;11.348;2023-04-08T08:13:35;97868.00;;;5.12;100.00
70304;BME280;57712;48.752;11.348;2023-04-08T08:16:02;97870.56;;;4.98;100.00
70304;BME280;57712;48.752;11.348;2023-04-08T08:18:29;97867.06;;;4.98;100.00
70304;BME280;57712;48.752;11.348;2023-04-08T08:20:55;97866.19;;;4.86;100.00
70304;BME280;57712;48.752;11.348;2023-04-08T08:23:22;97873.22;;;4.91;100.00
70304;BME280;57712;48.752;11.348;2023-04-08T08:25:48;97874.44;;;4.97;100.00
70304;BME280;57712;48.752;11.348;2023-04-08T08:28:15;97882.09;;;4.88;100.00
70304;BME280;57712;48.752;11.348;2023-04-08T08:30:42;97878.66;;;4.91;100.00
70304;BME280;57712;48.752;11.348;2023-04-08T08:33:08;97878.47;;;4.77;100.00
70304;BME280;57712;48.752;11.348;2023-04-08T08:35:35;97877.78;;;4.83;100.00
70304;BME280;57712;48.752;11.348;2023-04-08T08:38:01;97883.19;;;4.80;100.00
70304;BME280;57712;48.752;11.348;2023-04-08T08:40:28;97890.31;;;4.95;100.00
70304;BME280;57712;48.752;11.348;2023-04-08T08:42:55;97887.25;;;5.00;100.00
70304;BME280;57712;48.752;11.348;2023-04-08T08:45:24;97891.97;;;5.03;100.00
70304;BME280;57712;48.752;11.348;2023-04-08T08:47:51;97890.13;;;5.11;100.00
70304;BME280;57712;48.752;11.348;2023-04-08T08:50:18;97884.97;;;5.02;100.00
70304;BME280;57712;48.752;11.348;2023-04-08T08:52:47;97889.47;;;5.25;100.00
70304;BME280;57712;48.752;11.348;2023-04-08T08:55:15;97900.16;;;5.10;100.00
70304;BME280;57712;48.752;11.348;2023-04-08T08:58:03;97888.50;;;5.06;100.00
70304;BME280;57712;48.752;11.348;2023-04-08T09:00:34;97894.50;;;5.22;100.00
70304;BME280;57712;48.752;11.348;2023-04-08T09:03:21;97893.72;;;5.22;100.00
70304;BME280;57712;48.752;11.348;2023-04-08T09:05:52;97901.41;;;5.16;100.00
70304;BME280;57712;48.752;11.348;2023-04-08T09:08:32;97905.44;;;5.33;100.00
70304;BME280;57712;48.752;11.348;2023-04-08T09:11:18;97910.06;;;5.29;100.00
70304;BME280;57712;48.752;11.348;2023-04-08T09:13:45;97912.38;;;5.31;100.00
70304;BME280;57712;48.752;11.348;2023-04-08T09:16:13;97913.94;;;5.28;100.00
70304;BME280;57712;48.752;11.348;2023-04-08T09:18:43;97917.91;;;5.38;100.00
70304;BME280;57712;48.752;11.348;2023-04-08T09:21:12;97915.19;;;5.38;100.00
70304;BME280;57712;48.752;11.348;2023-04-08T09:28:43;97914.03;;;5.39;100.00
70304;BME280;57712;48.752;11.348;2023-04-08T09:31:24;97910.72;;;5.60;100.00
70304;BME280;57712;48.752;11.348;2023-04-08T09:33:56;97909.72;;;5.78;100.00
70304;BME280;57712;48.752;11.348;2023-04-08T09:36:25;97907.47;;;5.88;100.00
70304;BME280;57712;48.752;11.348;2023-04-08T09:38:54;97906.72;;;5.91;100.00
70304;BME280;57712;48.752;11.348;2023-04-08T09:41:21;97903.63;;;5.92;100.00
70304;BME280;57712;48.752;11.348;2023-04-08T09:43:53;97903.56;;;5.89;100.00
70304;BME280;57712;48.752;11.348;2023-04-08T09:54:30;97904.53;;;6.14;100.00
70304;BME280;57712;48.752;11.348;2023-04-08T09:57:00;97911.56;;;6.19;100.00
70304;BME280;57712;48.752;11.348;2023-04-08T09:59:30;97912.03;;;6.28;100.00
70304;BME280;57712;48.752;11.348;2023-04-08T10:02:06;97914.72;;;6.24;100.00
70304;BME280;57712;48.752;11.348;2023-04-08T10:04:38;97916.63;;;6.20;100.00
70304;BME280;57712;48.752;11.348;2023-04-08T10:07:07;97914.28;;;6.15;100.00
70304;BME280;57712;48.752;11.348;2023-04-08T10:09:34;97908.69;;;5.94;100.00
70304;BME280;57712;48.752;11.348;2023-04-08T10:12:03;97922.78;;;6.10;100.00
70304;BME280;57712;48.752;11.348;2023-04-08T10:14:30;97918.88;;;6.07;100.00
70304;BME280;57712;48.752;11.348;2023-04-08T10:17:23;97927.00;;;6.04;100.00
70304;BME280;57712;48.752;11.348;2023-04-08T10:19:51;97913.94;;;6.24;100.00
70304;BME280;57712;48.752;11.348;2023-04-08T10:22:44;97913.16;;;6.23;100.00
70304;BME280;57712;48.752;11.348;2023-04-08T10:27:41;97916.94;;;6.08;100.00
70304;BME280;57712;48.752;11.348;2023-04-08T10:35:28;97918.69;;;6.38;100.00
70304;BME280;57712;48.752;11.348;2023-04-08T10:37:56;97915.97;;;6.38;100.00
70304;BME280;57712;48.752;11.348;2023-04-08T10:40:24;97910.16;;;6.43;100.00
70304;BME280;57712;48.752;11.348;2023-04-08T10:42:57;97916.69;;;6.27;100.00
70304;BME280;57712;48.752;11.348;2023-04-08T10:45:24;97910.47;;;6.27;100.00
70304;BME280;57712;48.752;11.348;2023-04-08T10:47:50;97918.63;;;6.30;100.00
70304;BME280;57712;48.752;11.348;2023-04-08T10:50:19;97919.81;;;6.29;100.00
70304;BME280;57712;48.752;11.348;2023-04-08T10:52:53;97923.28;;;6.26;100.00
70304;BME280;57712;48.752;11.348;2023-04-08T10:55:23;97919.44;;;6.34;100.00
70304;BME280;57712;48.752;11.348;2023-04-08T10:57:50;97921.38;;;6.30;100.00
70304;BME280;57712;48.752;11.348;2023-04-08T11:00:17;97917.88;;;6.33;100.00
70304;BME280;57712;48.752;11.348;2023-04-08T11:02:44;97917.19;;;6.51;100.00
70304;BME280;57712;48.752;11.348;2023-04-08T11:05:11;97919.63;;;6.70;100.00
70304;BME280;57712;48.752;11.348;2023-04-08T11:07:40;97917.28;;;6.72;100.00
70304;BME280;57712;48.752;11.348;2023-04-08T11:10:07;97920.47;;;6.88;100.00
70304;BME280;57712;48.752;11.348;2023-04-08T11:12:35;97918.50;;;6.78;100.00
70304;BME280;57712;48.752;11.348;2023-04-08T11:15:03;97916.56;;;6.82;100.00
70304;BME280;57712;48.752;11.348;2023-04-08T11:17:33;97922.25;;;6.56;100.00
70304;BME280;57712;48.752;11.348;2023-04-08T11:20:00;97928.91;;;6.58;100.00
70304;BME280;57712;48.752;11.348;2023-04-08T11:22:32;97928.81;;;6.41;100.00
70304;BME280;57712;48.752;11.348;2023-04-08T11:25:00;97931.19;;;6.53;100.00
70304;BME280;57712;48.752;11.348;2023-04-08T11:27:27;97930.41;;;6.49;100.00
70304;BME280;57712;48.752;11.348;2023-04-08T11:29:54;97937.28;;;6.28;100.00
70304;BME280;57712;48.752;11.348;2023-04-08T11:32:22;97937.28;;;6.28;100.00
70304;BME280;57712;48.752;11.348;2023-04-08T11:34:48;97940.41;;;6.30;100.00
70304;BME280;57712;48.752;11.348;2023-04-08T11:37:15;97933.69;;;6.14;100.00
70304;BME280;57712;48.752;11.348;2023-04-08T11:39:43;97932.63;;;6.25;100.00
70304;BME280;57712;48.752;11.348;2023-04-08T11:42:27;97929.91;;;6.32;100.00
70304;BME280;57712;48.752;11.348;2023-04-08T11:44:54;97928.81;;;6.41;100.00
70304;BME280;57712;48.752;11.348;2023-04-08T11:47:21;97923.81;;;6.53;100.00
70304;BME280;57712;48.752;11.348;2023-04-08T11:49:47;97924.19;;;6.55;100.00
70304;BME280;57712;48.752;11.348;2023-04-08T11:52:15;97925.84;;;6.71;100.00
70304;BME280;57712;48.752;11.348;2023-04-08T11:54:41;97930.94;;;6.86;100.00
70304;BME280;57712;48.752;11.348;2023-04-08T11:57:08;97933.72;;;6.93;100.00
70304;BME280;57712;48.752;11.348;2023-04-08T11:59:35;97936.44;;;6.90;100.00
70304;BME280;57712;48.752;11.348;2023-04-08T12:02:02;97937.59;;;6.92;100.00
70304;BME280;57712;48.752;11.348;2023-04-08T12:04:29;97931.41;;;7.03;100.00
70304;BME280;57712;48.752;11.348;2023-04-08T12:06:56;97937.72;;;7.32;100.00
70304;BME280;57712;48.752;11.348;2023-04-08T12:09:23;97927.63;;;7.53;100.00
70304;BME280;57712;48.752;11.348;2023-04-08T12:11:50;97928.44;;;7.72;100.00
70304;BME280;57712;48.752;11.348;2023-04-08T12:14:16;97923.75;;;7.51;100.00
70304;BME280;57712;48.752;11.348;2023-04-08T12:16:43;97930.38;;;7.64;100.00
70304;BME280;57712;48.752;11.348;2023-04-08T12:19:09;97936.19;;;7.70;100.00
70304;BME280;57712;48.752;11.348;2023-04-08T12:21:36;97932.31;;;7.99;100.00
70304;BME280;57712;48.752;11.348;2023-04-08T12:24:03;97927.63;;;8.10;100.00
70304;BME280;57712;48.752;11.348;2023-04-08T12:26:30;97931.53;;;8.24;100.00
70304;BME280;57712;48.752;11.348;2023-04-08T12:28:56;97935.81;;;8.39;100.00
70304;BME280;57712;48.752;11.348;2023-04-08T12:31:23;97936.16;;;8.30;100.00
70304;BME280;57712;48.752;11.348;2023-04-08T12:33:50;97926.06;;;7.92;100.00
70304;BME280;57712;48.752;11.348;2023-04-08T12:36:17;97941.66;;;7.98;100.00
70304;BME280;57712;48.752;11.348;2023-04-08T12:38:43;97935.41;;;8.23;100.00
70304;BME280;57712;48.752;11.348;2023-04-08T12:41:10;97935.00;;;8.28;100.00
70304;BME280;57712;48.752;11.348;2023-04-08T12:43:36;97938.53;;;8.18;100.00
70304;BME280;57712;48.752;11.348;2023-04-08T12:46:04;97939.31;;;8.00;100.00
70304;BME280;57712;48.752;11.348;2023-04-08T12:48:30;97935.41;;;8.12;100.00
70304;BME280;57712;48.752;11.348;2023-04-08T12:50:57;97944.38;;;7.98;100.00
70304;BME280;57712;48.752;11.348;2023-04-08T12:53:24;97940.13;;;7.87;100.00
70304;BME280;57712;48.752;11.348;2023-04-08T12:55:51;97940.09;;;7.79;100.00
70304;BME280;57712;48.752;11.348;2023-04-08T12:58:23;97936.19;;;7.70;100.00
70304;BME280;57712;48.752;11.348;2023-04-08T13:00:50;97948.28;;;7.69;100.00
70304;BME280;57712;48.752;11.348;2023-04-08T13:03:17;97941.66;;;7.56;100.00
70304;BME280;57712;48.752;11.348;2023-04-08T13:05:43;97943.16;;;7.35;100.00
70304;BME280;57712;48.752;11.348;2023-04-08T13:08:10;97945.06;;;7.10;100.00
70304;BME280;57712;48.752;11.348;2023-04-08T13:10:40;97944.69;;;7.22;100.00
70304;BME280;57712;48.752;11.348;2023-04-08T13:13:07;97943.91;;;7.25;100.00
70304;BME280;57712;48.752;11.348;2023-04-08T13:15:33;97939.22;;;7.15;100.00
70304;BME280;57712;48.752;11.348;2023-04-08T13:18:00;97951.69;;;7.16;100.00